Terminal Aerodrome Forecast
Issued by NWS Cleveland, OH

Home | Current Version | Previous Version | Text Only | Print | Product List | Glossary Off
Versions: 1 2 3 4 5 6 7 8 9 10 11 12 13 14 15

151
FTUS41 KCLE 210523
TAFCAK
TAF
KCAK 210523Z 2106/2206 20014G20KT P6SM SCT080 BKN200
     FM211300 25012KT 5SM -SHRA OVC025
     FM211500 30012KT 3SM -SHRA BR OVC007
     FM212000 35011KT 6SM -SHRA BR SCT010 OVC020
     FM220500 03009KT 6SM -FZRASNPL BR OVC015=

USA.gov is the U.S. government's official web portal to all federal, state and local government web resources and services.